Spring Eagle — WDE8767 — position and weather

sailwx.info

Track history (hours):
 
Tides and Currents Weather Stations Pressure Air Temp Water Temp Dewpoint Dewpoint Depression Visibility Wind Speed Wind Dir Waves Ship Positions

Spring Eagle

Owner: M/V Spring Eagle, Galliano, LA. More information available from US FCC via Universal Licensing System and Coast Guard Vessel Documentation Center.

Last reported at 2018-Feb-21 11:34 UTC. Time now 2018-Feb-23 22:41 UTC.
Position N 29°34' W 090°29'.

Length 16 m; draft 2.5 m.

Type: Tug. MMSI: 367409340.

Date/timePositionNaut miles runAvg speedWind from/ knotsBaromVisibWave heightAir tempDewpointWater temp
2018-Feb-21 11:34N 29°34' W 090°29'0 7.6
2018-Feb-21 11:30N 29°34' W 090°30'4 7.4
2018-Feb-21 10:59N 29°34' W 090°34'3 6.5
2018-Feb-21 10:30N 29°35' W 090°38'3 6.7
2018-Feb-21 10:00N 29°36' W 090°41'1 2.8
2018-Feb-21 09:30N 29°36' W 090°43'3 5.3
2018-Feb-21 09:00N 29°33' W 090°42'0 0.0
2018-Feb-20 20:08N 29°33' W 090°42'0 0.6
2018-Feb-20 19:59N 29°33' W 090°42'1 1.8
2018-Feb-20 19:30N 29°34' W 090°43'1 2.0
2018-Feb-20 19:00N 29°35' W 090°43'2 3.4
2018-Feb-20 18:30N 29°36' W 090°43'2 3.3
2018-Feb-20 18:00N 29°36' W 090°41'2 4.6
2018-Feb-20 17:30N 29°35' W 090°38'2 4.6
2018-Feb-20 17:00N 29°35' W 090°36'2 4.3
2018-Feb-20 16:30N 29°34' W 090°33'2 4.7
2018-Feb-20 15:59N 29°34' W 090°31'1 0.1
2018-Feb-19 19:40N 29°34' W 090°29'1 8.3
2018-Feb-19 19:31N 29°34' W 090°31'4 8.0
2018-Feb-19 19:01N 29°35' W 090°35'4 6.9
2018-Feb-19 18:29N 29°36' W 090°39'3 6.0
2018-Feb-19 18:00N 29°36' W 090°43'3 6.4
2018-Feb-19 17:31N 29°33' W 090°42'4 7.8
2018-Feb-19 17:01N 29°29' W 090°43'4 8.3
2018-Feb-19 16:29N 29°25' W 090°43'0 0.0
2018-Feb-18 20:28N 29°25' W 090°43'2 5.3
2018-Feb-18 20:01N 29°27' W 090°43'3 5.5
2018-Feb-18 19:31N 29°30' W 090°43'3 5.4
2018-Feb-18 19:00N 29°33' W 090°42'2 4.3
2018-Feb-18 18:30N 29°35' W 090°43'1 1.9
2018-Feb-18 18:01N 29°36' W 090°43'2 3.1
2018-Feb-18 17:31N 29°36' W 090°41'2 4.7
2018-Feb-18 17:00N 29°35' W 090°39'2 4.5
2018-Feb-18 16:29N 29°35' W 090°36'2 4.4
2018-Feb-18 16:00N 29°34' W 090°34'  
Track history (hours):
 
Tides and Currents Weather Stations Pressure Air Temp Water Temp Dewpoint Dewpoint Depression Visibility Wind Speed Wind Dir Waves Ship Positions

Spring Eagle

Owner: M/V Spring Eagle, Galliano, LA. More information available from US FCC via Universal Licensing System and Coast Guard Vessel Documentation Center.

Last reported at 2018-Feb-21 11:34 UTC. Time now 2018-Feb-23 22:41 UTC.
Position N 29°34' W 090°29'.

Length 16 m; draft 2.5 m.

Type: Tug. MMSI: 367409340.

Date/timePositionNaut miles runAvg speedWind from/ knotsBaromVisibWave heightAir tempDewpointWater temp
2018-Feb-21 11:34N 29°34' W 090°29'0 7.6
2018-Feb-21 11:30N 29°34' W 090°30'4 7.4
2018-Feb-21 10:59N 29°34' W 090°34'3 6.5
2018-Feb-21 10:30N 29°35' W 090°38'3 6.7
2018-Feb-21 10:00N 29°36' W 090°41'1 2.8
2018-Feb-21 09:30N 29°36' W 090°43'3 5.3
2018-Feb-21 09:00N 29°33' W 090°42'0 0.0
2018-Feb-20 20:08N 29°33' W 090°42'0 0.6
2018-Feb-20 19:59N 29°33' W 090°42'1 1.8
2018-Feb-20 19:30N 29°34' W 090°43'1 2.0
2018-Feb-20 19:00N 29°35' W 090°43'2 3.4
2018-Feb-20 18:30N 29°36' W 090°43'2 3.3
2018-Feb-20 18:00N 29°36' W 090°41'2 4.6
2018-Feb-20 17:30N 29°35' W 090°38'2 4.6
2018-Feb-20 17:00N 29°35' W 090°36'2 4.3
2018-Feb-20 16:30N 29°34' W 090°33'2 4.7
2018-Feb-20 15:59N 29°34' W 090°31'1 0.1
2018-Feb-19 19:40N 29°34' W 090°29'1 8.3
2018-Feb-19 19:31N 29°34' W 090°31'4 8.0
2018-Feb-19 19:01N 29°35' W 090°35'4 6.9
2018-Feb-19 18:29N 29°36' W 090°39'3 6.0
2018-Feb-19 18:00N 29°36' W 090°43'3 6.4
2018-Feb-19 17:31N 29°33' W 090°42'4 7.8
2018-Feb-19 17:01N 29°29' W 090°43'4 8.3
2018-Feb-19 16:29N 29°25' W 090°43'0 0.0
2018-Feb-18 20:28N 29°25' W 090°43'2 5.3
2018-Feb-18 20:01N 29°27' W 090°43'3 5.5
2018-Feb-18 19:31N 29°30' W 090°43'3 5.4
2018-Feb-18 19:00N 29°33' W 090°42'2 4.3
2018-Feb-18 18:30N 29°35' W 090°43'1 1.9
2018-Feb-18 18:01N 29°36' W 090°43'2 3.1
2018-Feb-18 17:31N 29°36' W 090°41'2 4.7
2018-Feb-18 17:00N 29°35' W 090°39'2 4.5
2018-Feb-18 16:29N 29°35' W 090°36'2 4.4
2018-Feb-18 16:00N 29°34' W 090°34'  

Dump ship's entire track history